Time;durP1;ratioP1;P1;durP2;ratioP2;P2;SDS_P1;SDS_P2;PMS_P1;PMS_P2;Temp;Humidity;BMP_temperature;BMP_pressure;BME280_temperature;BME280_humidity;BME280_pressure;Samples;Min_cycle;Max_cycle;Signal;HPM_P1;HPM_P2
2021/06/01 00:01:11;;;;;;;;;;;;;;;28.16;37.54;100188.25;5020814;28;756;-28
2021/06/01 00:03:36;;;;;;;;;;;;;;;28.09;37.82;100188.22;5006567;28;951;-28
2021/06/01 00:06:02;;;;;;;;;;;;;;;28.06;37.68;100194.06;5003394;28;820;-28
2021/06/01 00:08:27;;;;;;;;;;;;;;;28.10;37.85;100191.78;5003658;28;780;-28
2021/06/01 00:10:52;;;;;;;;;;;;;;;28.11;37.86;100188.06;5003533;28;757;-27
2021/06/01 00:13:17;;;;;;;;;;;;;;;28.10;38.07;100189.91;5011018;28;1126;-27
2021/06/01 00:15:43;;;;;;;;;;;;;;;28.13;37.92;100190.56;5023273;28;1910;-28
2021/06/01 00:18:08;;;;;;;;;;;;;;;28.09;38.05;100190.94;5012294;28;1027;-28
2021/06/01 00:20:33;;;;;;;;;;;;;;;28.21;38.00;100182.25;5003502;28;812;-28
2021/06/01 00:22:58;;;;;;;;;;;;;;;28.18;38.45;100177.22;5003676;28;895;-27
2021/06/01 00:25:24;;;;;;;;;;;;;;;28.17;38.27;100175.56;5003631;28;808;-27
2021/06/01 00:27:49;;;;;;;;;;;;;;;28.18;38.56;100179.94;5003635;28;851;-27
2021/06/01 00:30:15;;;;;;;;;;;;;;;28.09;38.40;100182.81;5003301;28;816;-28
2021/06/01 00:32:40;;;;;;;;;;;;;;;28.17;38.45;100178.28;5002854;28;962;-27
2021/06/01 00:35:05;;;;;;;;;;;;;;;28.23;38.36;100183.72;5003355;28;745;-27
2021/06/01 00:37:31;;;;;;;;;;;;;;;28.16;38.53;100179.31;5003393;28;1975;-28
2021/06/01 00:39:56;;;;;;;;;;;;;;;28.14;38.36;100178.69;5003297;28;822;-27
2021/06/01 00:42:21;;;;;;;;;;;;;;;28.20;38.32;100184.13;5003340;28;828;-27
2021/06/01 00:44:50;;;;;;;;;;;;;;;28.16;38.87;100176.63;5003451;28;808;-27
2021/06/01 00:47:15;;;;;;;;;;;;;;;28.16;38.69;100180.13;5002583;28;1020;-28
2021/06/01 00:49:40;;;;;;;;;;;;;;;28.11;38.69;100177.25;5003305;28;780;-28
2021/06/01 00:52:06;;;;;;;;;;;;;;;28.13;38.74;100171.63;5020676;28;1149;-28
2021/06/01 00:54:31;;;;;;;;;;;;;;;28.18;38.38;100167.25;5042734;28;799;-28
2021/06/01 00:56:56;;;;;;;;;;;;;;;28.10;38.54;100170.16;5042398;28;1914;-27
2021/06/01 00:59:22;;;;;;;;;;;;;;;28.09;38.76;100163.09;5042811;28;785;-27
2021/06/01 01:01:47;;;;;;;;;;;;;;;28.12;38.72;100173.50;5040569;28;932;-29
2021/06/01 01:04:12;;;;;;;;;;;;;;;28.05;38.63;100165.34;5022632;28;992;-28
2021/06/01 01:07:02;;;;;;;;;;;;;;;28.02;38.92;100162.22;5022986;28;775;-28
2021/06/01 01:09:28;;;;;;;;;;;;;;;27.99;38.69;100152.66;5005379;28;764;-28
2021/06/01 01:11:53;;;;;;;;;;;;;;;27.99;38.76;100158.88;5002985;28;1567;-28
2021/06/01 01:14:26;;;;;;;;;;;;;;;28.02;38.83;100163.06;5019615;28;1231;-28
2021/06/01 01:17:05;;;;;;;;;;;;;;;28.01;38.86;100163.28;5016671;28;1975;-28
2021/06/01 01:19:49;;;;;;;;;;;;;;;28.05;38.64;100159.09;5000153;28;839;-28
2021/06/01 01:22:14;;;;;;;;;;;;;;;28.02;38.98;100154.09;4999952;28;840;-28
2021/06/01 01:24:39;;;;;;;;;;;;;;;28.01;38.59;100155.16;4999222;28;856;-27
2021/06/01 01:27:10;;;;;;;;;;;;;;;28.10;38.36;100153.94;4999976;28;776;-28
2021/06/01 01:29:42;;;;;;;;;;;;;;;28.09;38.41;100158.50;4999825;28;760;-28
2021/06/01 01:32:10;;;;;;;;;;;;;;;28.04;38.39;100154.75;5000846;28;957;-27
2021/06/01 01:34:35;;;;;;;;;;;;;;;28.02;38.55;100154.94;4982452;28;788;-28
2021/06/01 01:37:00;;;;;;;;;;;;;;;28.01;38.87;100155.97;4999512;28;1961;-28
2021/06/01 01:39:25;;;;;;;;;;;;;;;27.97;38.53;100147.47;4999316;28;835;-28
2021/06/01 01:41:51;;;;;;;;;;;;;;;27.99;38.62;100148.06;4982644;28;788;-28
2021/06/01 01:44:17;;;;;;;;;;;;;;;28.04;38.58;100143.94;4982455;28;780;-28
2021/06/01 01:49:12;;;;;;;;;;;;;;;28.11;38.30;100134.78;4981528;28;973;-28
2021/06/01 01:51:37;;;;;;;;;;;;;;;28.07;38.63;100133.53;5008839;28;1181;-28
2021/06/01 01:54:03;;;;;;;;;;;;;;;28.02;38.69;100127.91;5038577;28;855;-28
2021/06/01 01:56:34;;;;;;;;;;;;;;;28.04;38.73;100127.72;5021134;28;1961;-29
2021/06/01 01:59:00;;;;;;;;;;;;;;;28.01;38.68;100131.63;5038712;28;724;-28
2021/06/01 02:01:25;;;;;;;;;;;;;;;28.04;38.73;100131.25;5038461;28;811;-28
2021/06/01 02:03:50;;;;;;;;;;;;;;;28.03;38.61;100126.88;5004064;28;951;-28
2021/06/01 02:06:16;;;;;;;;;;;;;;;28.05;38.96;100126.66;4999033;28;903;-28
2021/06/01 02:08:41;;;;;;;;;;;;;;;28.02;38.77;100133.31;4998801;28;773;-28
2021/06/01 02:11:07;;;;;;;;;;;;;;;28.08;38.80;100139.78;4999068;28;828;-28
2021/06/01 02:13:32;;;;;;;;;;;;;;;28.04;38.88;100143.94;4998561;28;1203;-28
2021/06/01 02:15:58;;;;;;;;;;;;;;;28.03;39.09;100148.50;4998720;28;1910;-28
2021/06/01 02:18:23;;;;;;;;;;;;;;;28.02;39.04;100143.28;5000511;28;1070;-28
2021/06/01 02:20:51;;;;;;;;;;;;;;;28.03;38.98;100144.97;4999151;28;819;-28
2021/06/01 02:26:01;;;;;;;;;;;;;;;27.93;39.43;100148.88;4998479;28;619;-28
2021/06/01 02:28:27;;;;;;;;;;;;;;;28.00;38.80;100138.09;4998611;28;800;-28
2021/06/01 02:31:02;;;;;;;;;;;;;;;28.01;38.85;100123.53;4981252;28;766;-28
2021/06/01 02:33:28;;;;;;;;;;;;;;;27.96;38.83;100120.63;4998105;28;1024;-28
2021/06/01 02:35:54;;;;;;;;;;;;;;;27.98;38.89;100118.53;4981584;28;1902;-29
2021/06/01 02:38:19;;;;;;;;;;;;;;;27.94;39.19;100110.03;4980563;28;927;-29
2021/06/01 02:40:45;;;;;;;;;;;;;;;27.96;38.84;100118.75;4980923;28;740;-28
2021/06/01 02:43:11;;;;;;;;;;;;;;;27.89;38.91;100111.66;4981237;28;879;-28
2021/06/01 02:45:37;;;;;;;;;;;;;;;27.85;38.84;100117.47;4998135;28;773;-29
2021/06/01 02:48:03;;;;;;;;;;;;;;;27.92;38.80;100124.78;4980350;28;966;-28
2021/06/01 02:50:29;;;;;;;;;;;;;;;27.92;39.03;100120.19;4998785;28;769;-28
2021/06/01 02:52:54;;;;;;;;;;;;;;;27.86;38.93;100115.63;5010551;28;1269;-28
2021/06/01 02:55:19;;;;;;;;;;;;;;;27.94;38.68;100123.53;5019640;28;832;-28
2021/06/01 02:57:45;;;;;;;;;;;;;;;27.88;38.75;100121.63;5037448;28;1965;-28
2021/06/01 03:00:11;;;;;;;;;;;;;;;27.86;38.48;100121.84;5037561;28;769;-28
2021/06/01 03:02:37;;;;;;;;;;;;;;;27.85;38.64;100127.44;5022654;28;960;-28
2021/06/01 03:05:02;;;;;;;;;;;;;;;27.81;38.79;100121.59;4998164;28;768;-28
2021/06/01 03:07:27;;;;;;;;;;;;;;;27.87;38.67;100131.63;4997809;28;808;-28
2021/06/01 03:09:52;;;;;;;;;;;;;;;27.89;38.51;100126.03;4997803;28;783;-28
2021/06/01 03:13:01;;;;;;;;;;;;;;;27.84;38.77;100120.38;4998257;28;784;-28
2021/06/01 03:15:07;;;;;;;;;;;;;;;27.86;38.93;100118.31;4989393;28;1354;-27
2021/06/01 03:17:32;;;;;;;;;;;;;;;27.52;37.28;100107.34;4979561;28;1910;-30
2021/06/01 03:19:57;;;;;;;;;;;;;;;25.67;36.49;100110.59;4997651;28;828;-29
2021/06/01 03:22:23;;;;;;;;;;;;;;;24.38;38.12;100116.75;4997325;28;820;-29
2021/06/01 03:24:48;;;;;;;;;;;;;;;23.95;38.35;100125.22;4997825;28;824;-30
2021/06/01 03:27:13;;;;;;;;;;;;;;;23.69;38.96;100126.38;4997676;28;816;-30
2021/06/01 03:29:39;;;;;;;;;;;;;;;23.62;38.94;100131.63;4997450;28;863;-30
2021/06/01 03:32:04;;;;;;;;;;;;;;;23.36;39.28;100125.47;4997041;28;969;-30
2021/06/01 03:34:29;;;;;;;;;;;;;;;23.07;40.28;100126.84;4997168;28;788;-30
2021/06/01 03:36:55;;;;;;;;;;;;;;;22.58;41.48;100119.69;4996986;28;1977;-30
2021/06/01 03:39:21;;;;;;;;;;;;;;;22.85;41.17;100125.75;4979661;28;855;-30
2021/06/01 03:41:46;;;;;;;;;;;;;;;22.60;41.70;100121.25;4997437;28;789;-29
2021/06/01 03:44:12;;;;;;;;;;;;;;;22.56;42.00;100122.53;4997534;28;781;-29
2021/06/01 03:46:37;;;;;;;;;;;;;;;22.68;41.94;100127.59;4997095;28;961;-29
2021/06/01 03:49:02;;;;;;;;;;;;;;;22.52;42.35;100134.63;4996850;28;985;-29
2021/06/01 03:51:27;;;;;;;;;;;;;;;22.39;42.47;100133.25;5000729;28;1133;-29
2021/06/01 03:53:53;;;;;;;;;;;;;;;22.04;43.02;100124.47;5012642;28;1184;-30
2021/06/01 03:56:18;;;;;;;;;;;;;;;21.93;43.48;100120.28;4996837;28;1953;-29
2021/06/01 03:58:44;;;;;;;;;;;;;;;22.41;43.29;100124.19;4997046;28;777;-29
2021/06/01 04:01:09;;;;;;;;;;;;;;;23.55;40.82;100127.94;4997377;28;772;-25
2021/06/01 04:03:40;;;;;;;;;;;;;;;24.09;40.05;100124.47;4996696;28;957;-26
2021/06/01 04:06:05;;;;;;;;;;;;;;;24.42;39.47;100123.41;4997372;28;828;-26
2021/06/01 04:08:31;;;;;;;;;;;;;;;24.45;39.83;100124.94;4996955;28;748;-28
2021/06/01 04:10:56;;;;;;;;;;;;;;;24.62;39.41;100124.78;4997120;28;828;-27
2021/06/01 04:13:21;;;;;;;;;;;;;;;24.72;39.43;100120.00;4997010;28;1031;-27
2021/06/01 04:15:46;;;;;;;;;;;;;;;24.76;39.40;100118.59;4996626;28;1959;-26
2021/06/01 04:18:12;;;;;;;;;;;;;;;24.81;39.84;100118.03;4996542;28;1031;-26
2021/06/01 04:20:37;;;;;;;;;;;;;;;25.07;39.46;100114.13;4997211;28;781;-26
2021/06/01 04:23:02;;;;;;;;;;;;;;;25.23;39.05;100114.97;4996780;28;824;-26
2021/06/01 04:25:28;;;;;;;;;;;;;;;25.31;38.82;100115.72;4996746;28;845;-26
2021/06/01 04:27:53;;;;;;;;;;;;;;;25.35;39.12;100118.03;4997130;28;756;-28
2021/06/01 04:30:18;;;;;;;;;;;;;;;25.39;38.98;100106.69;4996759;28;883;-27
2021/06/01 04:32:44;;;;;;;;;;;;;;;25.41;38.66;100103.81;4996854;28;1008;-26
2021/06/01 04:35:09;;;;;;;;;;;;;;;25.49;38.62;100102.91;4996809;28;808;-27
2021/06/01 04:37:35;;;;;;;;;;;;;;;25.47;38.75;100104.94;4996348;28;1907;-27
2021/06/01 04:40:00;;;;;;;;;;;;;;;25.51;38.68;100103.53;4996736;28;911;-27
2021/06/01 04:42:25;;;;;;;;;;;;;;;25.53;38.67;100105.00;4997350;28;739;-27
2021/06/01 04:44:51;;;;;;;;;;;;;;;25.49;38.83;100111.78;4996488;28;841;-27
2021/06/01 04:47:16;;;;;;;;;;;;;;;25.46;39.26;100108.66;4996568;28;1016;-27
2021/06/01 04:49:41;;;;;;;;;;;;;;;25.48;39.09;100104.75;5000790;28;812;-26
2021/06/01 04:52:07;;;;;;;;;;;;;;;25.53;39.02;100113.09;5017347;28;1157;-27
2021/06/01 04:54:32;;;;;;;;;;;;;;;25.48;39.17;100109.28;5039726;28;895;-28
2021/06/01 04:56:57;;;;;;;;;;;;;;;25.53;39.31;100113.09;5039786;28;1902;-27
2021/06/01 04:59:23;;;;;;;;;;;;;;;25.57;39.41;100110.88;5039413;28;747;-27
2021/06/01 05:01:48;;;;;;;;;;;;;;;25.48;39.38;100110.13;5038091;28;975;-27
2021/06/01 05:04:13;;;;;;;;;;;;;;;25.53;39.37;100118.47;5001223;28;1007;-27
2021/06/01 05:06:38;;;;;;;;;;;;;;;25.60;39.43;100120.41;4999521;28;500;-27
2021/06/01 05:09:05;;;;;;;;;;;;;;;25.58;39.27;100115.22;5026451;28;814;-27
2021/06/01 05:11:30;;;;;;;;;;;;;;;25.61;38.99;100117.53;5039412;28;814;-27
2021/06/01 05:13:56;;;;;;;;;;;;;;;25.66;39.06;100112.44;5039137;28;1179;-27
2021/06/01 05:16:22;;;;;;;;;;;;;;;25.78;38.75;100120.88;5039075;28;1979;-27
2021/06/01 05:18:48;;;;;;;;;;;;;;;25.72;38.82;100127.03;5004868;28;1032;-27
2021/06/01 05:21:13;;;;;;;;;;;;;;;25.82;38.68;100123.19;4999452;28;834;-27
2021/06/01 05:23:38;;;;;;;;;;;;;;;25.83;38.55;100130.25;4999625;28;780;-27
2021/06/01 05:26:04;;;;;;;;;;;;;;;25.79;38.75;100136.00;4999518;28;814;-27
2021/06/01 05:28:29;;;;;;;;;;;;;;;25.80;38.75;100144.94;4999049;28;860;-28
2021/06/01 05:31:12;;;;;;;;;;;;;;;25.98;37.93;100143.69;4999560;28;820;-28
2021/06/01 05:33:39;;;;;;;;;;;;;;;26.08;37.84;100135.28;4998388;28;953;-28
2021/06/01 05:36:04;;;;;;;;;;;;;;;26.08;38.10;100138.81;4998771;28;1903;-27
2021/06/01 05:38:32;;;;;;;;;;;;;;;26.02;38.24;100137.75;4999349;28;844;-27
2021/06/01 05:40:58;;;;;;;;;;;;;;;25.95;38.20;100142.22;4999137;28;739;-27
2021/06/01 05:43:23;;;;;;;;;;;;;;;25.92;38.20;100138.03;4999357;28;760;-27
2021/06/01 05:45:49;;;;;;;;;;;;;;;25.88;38.65;100125.97;5012324;28;2318;-27
2021/06/01 05:48:14;;;;;;;;;;;;;;;25.90;38.56;100125.78;5003751;28;871;-27
2021/06/01 05:50:40;;;;;;;;;;;;;;;25.86;39.13;100119.13;4998662;28;844;-27
2021/06/01 05:53:05;;;;;;;;;;;;;;;25.92;38.81;100129.94;5031654;28;1114;-27
2021/06/01 05:55:31;;;;;;;;;;;;;;;25.91;39.17;100128.28;5022136;28;2226;-27
2021/06/01 05:57:56;;;;;;;;;;;;;;;25.94;39.07;100124.38;4997790;28;1910;-27
2021/06/01 06:00:21;;;;;;;;;;;;;;;25.96;38.97;100127.69;5006695;28;856;-27
2021/06/01 06:02:47;;;;;;;;;;;;;;;25.89;39.20;100118.72;4997025;28;937;-27
2021/06/01 06:05:12;;;;;;;;;;;;;;;26.01;38.77;100121.72;4997930;28;859;-27
2021/06/01 06:07:39;;;;;;;;;;;;;;;26.04;38.39;100122.19;4998302;28;799;-29
2021/06/01 06:10:05;;;;;;;;;;;;;;;25.89;38.34;100124.94;4998340;28;841;-27
2021/06/01 06:12:30;;;;;;;;;;;;;;;25.87;38.94;100132.41;4997935;28;1646;-27
2021/06/01 06:14:55;;;;;;;;;;;;;;;25.94;38.45;100127.09;4997944;28;826;-27
2021/06/01 06:17:24;;;;;;;;;;;;;;;25.87;38.90;100131.56;4997391;28;1911;-26
2021/06/01 06:19:50;;;;;;;;;;;;;;;25.89;38.85;100129.50;4998704;28;741;-26
2021/06/01 06:22:15;;;;;;;;;;;;;;;25.90;39.65;100129.31;4997342;28;803;-26
2021/06/01 06:24:40;;;;;;;;;;;;;;;25.86;39.20;100122.63;4998154;28;824;-26
2021/06/01 06:27:06;;;;;;;;;;;;;;;26.01;38.95;100121.72;4998154;28;832;-26
2021/06/01 06:29:31;;;;;;;;;;;;;;;26.00;39.01;100118.22;4997895;28;737;-30
2021/06/01 06:31:56;;;;;;;;;;;;;;;26.14;38.95;100118.38;4997665;28;962;-28
2021/06/01 06:34:21;;;;;;;;;;;;;;;26.13;38.49;100117.53;5001539;28;922;-28
2021/06/01 06:36:47;;;;;;;;;;;;;;;26.22;38.04;100125.50;5017329;28;1958;-28
2021/06/01 06:39:12;;;;;;;;;;;;;;;26.20;37.88;100122.97;5017251;28;868;-28
2021/06/01 06:41:37;;;;;;;;;;;;;;;26.22;37.97;100123.63;5017586;28;767;-28
2021/06/01 06:44:04;;;;;;;;;;;;;;;26.13;37.50;100119.38;5016932;28;840;-27
2021/06/01 06:46:35;;;;;;;;;;;;;;;26.06;37.70;100123.88;5017729;28;776;-27
2021/06/01 06:49:01;;;;;;;;;;;;;;;25.92;37.44;100123.72;4997769;28;1060;-27
2021/06/01 06:51:27;;;;;;;;;;;;;;;25.92;38.28;100118.34;5004093;28;1066;-27
2021/06/01 06:53:53;;;;;;;;;;;;;;;25.92;38.16;100113.78;5019324;28;836;-27
2021/06/01 06:56:19;;;;;;;;;;;;;;;25.98;37.86;100114.88;5037024;28;1890;-27
2021/06/01 06:58:45;;;;;;;;;;;;;;;26.01;38.49;100119.03;5036978;28;960;-27
2021/06/01 07:01:10;;;;;;;;;;;;;;;25.91;39.26;100117.50;5037261;28;782;-35
2021/06/01 07:03:36;;;;;;;;;;;;;;;25.86;38.30;100106.47;5006274;28;1015;-34
2021/06/01 07:06:01;;;;;;;;;;;;;;;25.71;39.72;100122.66;4997501;28;800;-35
2021/06/01 07:08:26;;;;;;;;;;;;;;;25.85;38.63;100128.19;4997623;28;768;-34
2021/06/01 07:10:51;;;;;;;;;;;;;;;25.79;38.61;100130.63;4996861;28;917;-35
2021/06/01 07:13:17;;;;;;;;;;;;;;;25.88;39.18;100125.13;4997078;28;1279;-34
2021/06/01 07:15:45;;;;;;;;;;;;;;;25.86;38.72;100122.63;4979645;28;1910;-33
2021/06/01 07:18:11;;;;;;;;;;;;;;;25.90;38.52;100123.09;4996787;28;1449;-32
2021/06/01 07:20:36;;;;;;;;;;;;;;;25.92;38.17;100135.31;4997262;28;773;-33
2021/06/01 07:23:02;;;;;;;;;;;;;;;25.89;37.85;100135.72;4997158;28;862;-33
2021/06/01 07:25:27;;;;;;;;;;;;;;;25.80;38.22;100136.84;4997131;28;795;-33
2021/06/01 07:27:52;;;;;;;;;;;;;;;25.85;38.00;100145.22;4997029;28;737;-32
2021/06/01 07:30:18;;;;;;;;;;;;;;;25.86;37.82;100129.88;4997565;28;756;-33
2021/06/01 07:32:43;;;;;;;;;;;;;;;25.88;37.63;100136.75;4996710;28;1024;-32
2021/06/01 07:35:09;;;;;;;;;;;;;;;25.75;37.98;100140.13;4996581;28;844;-33
2021/06/01 07:37:34;;;;;;;;;;;;;;;25.87;37.38;100134.25;4996972;28;1905;-32
2021/06/01 07:39:59;;;;;;;;;;;;;;;25.94;37.28;100139.72;4997404;28;886;-33
2021/06/01 07:42:25;;;;;;;;;;;;;;;25.98;37.21;100141.00;4997036;28;805;-31
2021/06/01 07:44:50;;;;;;;;;;;;;;;25.96;36.94;100140.38;4997119;28;832;-34
2021/06/01 07:47:15;;;;;;;;;;;;;;;25.93;37.27;100136.16;4996631;28;1012;-32
2021/06/01 07:49:40;;;;;;;;;;;;;;;25.91;37.18;100141.75;4997051;28;724;-32
2021/06/01 07:52:06;;;;;;;;;;;;;;;25.84;37.21;100140.00;5013877;28;1164;-33
2021/06/01 07:54:32;;;;;;;;;;;;;;;25.89;37.20;100137.59;5036932;28;729;-33
2021/06/01 07:56:58;;;;;;;;;;;;;;;25.88;36.87;100144.81;5035941;28;1905;-33
2021/06/01 07:59:23;;;;;;;;;;;;;;;25.83;36.99;100133.78;5036042;28;769;-31
2021/06/01 08:01:48;;;;;;;;;;;;;;;25.78;37.01;100137.03;5034538;28;995;-32
2021/06/01 08:04:14;;;;;;;;;;;;;;;25.76;37.05;100140.94;4996661;28;944;-31
2021/06/01 08:06:39;;;;;;;;;;;;;;;25.78;36.83;100142.44;4996692;28;749;-31
2021/06/01 08:09:05;;;;;;;;;;;;;;;25.76;36.78;100132.84;4996692;28;1029;-31
2021/06/01 08:11:30;;;;;;;;;;;;;;;25.75;37.09;100139.28;4996294;28;662;-31
2021/06/01 08:13:55;;;;;;;;;;;;;;;25.74;37.14;100149.22;4996352;28;1050;-32
2021/06/01 08:16:21;;;;;;;;;;;;;;;25.82;36.66;100144.75;4996771;28;1918;-32
2021/06/01 08:19:00;;;;;;;;;;;;;;;25.79;36.78;100152.19;4996029;28;1020;-31
2021/06/01 08:21:37;;;;;;;;;;;;;;;25.84;36.42;100151.59;4997405;28;830;-31
2021/06/01 08:24:03;;;;;;;;;;;;;;;25.69;36.77;100146.28;5000694;28;836;-34
2021/06/01 08:26:28;;;;;;;;;;;;;;;25.64;36.66;100151.38;5000029;28;833;-33
2021/06/01 08:28:54;;;;;;;;;;;;;;;25.56;36.86;100154.97;5000559;28;793;-31
2021/06/01 08:31:19;;;;;;;;;;;;;;;25.64;36.74;100149.50;5000639;28;872;-32
2021/06/01 08:33:44;;;;;;;;;;;;;;;25.53;37.23;100155.34;4999778;28;1016;-32
2021/06/01 08:36:09;;;;;;;;;;;;;;;25.55;36.91;100147.91;5000423;28;1910;-33
2021/06/01 08:38:35;;;;;;;;;;;;;;;25.54;37.04;100141.69;5000562;28;823;-31
2021/06/01 08:41:01;;;;;;;;;;;;;;;25.59;37.05;100137.59;5000166;28;807;-33
2021/06/01 08:43:27;;;;;;;;;;;;;;;25.60;36.96;100140.13;5000159;28;829;-32
2021/06/01 08:45:54;;;;;;;;;;;;;;;25.60;36.88;100134.72;5000126;28;828;-34
2021/06/01 08:48:19;;;;;;;;;;;;;;;25.61;36.76;100132.88;4999332;28;1000;-33
2021/06/01 08:50:49;;;;;;;;;;;;;;;25.61;36.82;100135.56;5000543;28;835;-34
2021/06/01 08:53:15;;;;;;;;;;;;;;;25.76;36.62;100141.78;5036018;28;1181;-32
2021/06/01 08:55:40;;;;;;;;;;;;;;;25.74;36.59;100129.53;5039275;28;771;-33
2021/06/01 08:58:05;;;;;;;;;;;;;;;25.73;36.58;100131.38;5039682;28;836;-33
2021/06/01 09:00:30;;;;;;;;;;;;;;;25.68;36.80;100137.34;5039270;28;728;-32
2021/06/01 09:03:06;;;;;;;;;;;;;;;25.72;36.55;100132.44;5019413;28;1003;-34
2021/06/01 09:05:31;;;;;;;;;;;;;;;25.71;36.60;100132.63;5000136;28;741;-32
2021/06/01 09:08:04;;;;;;;;;;;;;;;25.74;36.69;100134.94;4999693;28;824;-34
2021/06/01 09:13:33;;;;;;;;;;;;;;;25.80;36.40;100150.31;4982577;28;1031;-31
2021/06/01 09:21:28;;;;;;;;;;;;;;;25.73;36.96;100157.47;4999491;28;626;-32
2021/06/01 09:23:58;;;;;;;;;;;;;;;25.76;37.00;100157.09;4999063;28;785;-30
2021/06/01 09:26:39;;;;;;;;;;;;;;;25.80;36.61;100148.47;4999423;28;816;-33
2021/06/01 09:29:05;;;;;;;;;;;;;;;25.76;36.95;100152.56;4999758;28;1107;-31
2021/06/01 09:31:30;;;;;;;;;;;;;;;25.86;37.92;100156.84;5004492;28;906;-33
2021/06/01 09:33:55;;;;;;;;;;;;;;;25.84;38.37;100156.19;4998019;28;969;-33
2021/06/01 09:36:21;;;;;;;;;;;;;;;25.89;38.32;100157.25;5001019;28;1898;-32
2021/06/01 09:38:46;;;;;;;;;;;;;;;25.96;38.25;100160.03;5018597;28;833;-33
2021/06/01 09:41:11;;;;;;;;;;;;;;;26.03;38.06;100152.03;5018394;28;757;-33
2021/06/01 09:44:00;;;;;;;;;;;;;;;26.08;37.91;100140.69;5017748;28;734;-33
2021/06/01 09:46:26;;;;;;;;;;;;;;;25.99;38.58;100148.06;5013164;28;1730;-33
2021/06/01 09:48:52;;;;;;;;;;;;;;;25.91;37.86;100141.75;4999592;28;941;-32
2021/06/01 09:51:36;;;;;;;;;;;;;;;25.97;37.89;100142.03;5002554;28;1066;-31
2021/06/01 09:54:22;;;;;;;;;;;;;;;26.05;38.52;100136.50;5037827;28;744;-31
2021/06/01 09:56:47;;;;;;;;;;;;;;;26.09;38.45;100131.59;5037461;28;1906;-29
2021/06/01 09:59:12;;;;;;;;;;;;;;;26.20;38.69;100141.84;5020174;28;788;-29
2021/06/01 10:01:37;;;;;;;;;;;;;;;25.21;39.20;100015.56;5019917;28;847;-31
2021/06/01 10:04:03;;;;;;;;;;;;;;;26.04;39.23;100135.66;4997518;28;894;-30
2021/06/01 10:06:34;;;;;;;;;;;;;;;26.15;39.25;100145.13;4998363;28;781;-29
2021/06/01 10:09:00;;;;;;;;;;;;;;;26.16;39.13;100146.78;4998642;28;783;-30
2021/06/01 10:11:27;;;;;;;;;;;;;;;26.16;39.26;100149.47;4997928;28;880;-31
2021/06/01 10:13:52;;;;;;;;;;;;;;;26.20;39.14;100138.31;4997344;28;1189;-30
2021/06/01 10:16:17;;;;;;;;;;;;;;;26.30;39.17;100133.44;4980980;28;1903;-31
2021/06/01 10:18:43;;;;;;;;;;;;;;;26.31;39.36;100140.50;4997684;28;1016;-31
2021/06/01 10:21:09;;;;;;;;;;;;;;;26.43;39.19;100137.31;4998308;28;765;-31
2021/06/01 10:23:37;;;;;;;;;;;;;;;26.43;39.02;100134.63;4998029;28;843;-30
2021/06/01 10:26:04;;;;;;;;;;;;;;;26.41;39.15;100132.97;4997133;28;844;-32
2021/06/01 10:28:37;;;;;;;;;;;;;;;26.47;39.10;100133.22;4998304;28;728;-30
2021/06/01 10:31:05;;;;;;;;;;;;;;;26.36;39.41;100134.59;4998147;28;819;-30
2021/06/01 10:33:39;;;;;;;;;;;;;;;26.45;39.35;100136.13;4996847;28;965;-30
2021/06/01 10:52:24;;;;;;;;;;;;;;;26.65;38.96;100125.50;5019837;28;1141;-31
2021/06/01 10:54:56;;;;;;;;;;;;;;;26.71;38.85;100126.56;5036781;28;861;-33
2021/06/01 10:57:22;;;;;;;;;;;;;;;26.71;39.09;100134.66;5037126;28;1913;-30
2021/06/01 11:01:50;;;;;;;;;;;;;;;26.67;39.47;100129.84;5036887;28;855;-34
2021/06/01 11:03:03;;;;;;;;;;;;;;;26.78;38.85;100132.00;5020122;28;1026;-29
2021/06/01 11:05:29;;;;;;;;;;;;;;;26.68;39.32;100128.81;4997435;28;844;-30
2021/06/01 11:07:56;;;;;;;;;;;;;;;26.69;39.05;100141.28;4997470;28;769;-31
2021/06/01 11:10:36;;;;;;;;;;;;;;;26.76;39.21;100136.75;4997547;28;772;-31
2021/06/01 11:13:02;;;;;;;;;;;;;;;26.74;39.06;100136.16;4997523;28;1291;-32
2021/06/01 11:15:28;;;;;;;;;;;;;;;26.77;39.23;100143.84;4997198;28;852;-32
2021/06/01 11:17:54;;;;;;;;;;;;;;;26.76;39.48;100145.69;4996453;28;1914;-32
2021/06/01 11:20:39;;;;;;;;;;;;;;;26.76;39.36;100134.91;4994359;28;1143;-30
2021/06/01 11:23:50;;;;;;;;;;;;;;;26.73;39.11;100140.69;5005467;28;860;-30
2021/06/01 11:33:49;;;;;;;;;;;;;;;26.73;39.56;100148.78;4999179;28;954;-32
2021/06/01 11:36:17;;;;;;;;;;;;;;;26.76;39.49;100148.41;4998728;28;1968;-29
2021/06/01 11:44:04;;;;;;;;;;;;;;;26.73;39.73;100135.31;5015842;28;646;-31
2021/06/01 11:46:41;;;;;;;;;;;;;;;26.65;39.76;100136.28;4998453;28;1295;-30
2021/06/01 11:51:50;;;;;;;;;;;;;;;26.65;40.15;100143.53;5009152;28;1145;-32
2021/06/01 11:54:16;;;;;;;;;;;;;;;26.71;39.71;100141.94;5035701;28;745;-32
2021/06/01 11:56:49;;;;;;;;;;;;;;;26.75;39.72;100138.66;5035825;28;1910;-31
2021/06/01 12:18:16;;;;;;;;;;;;;;;26.84;39.32;100152.81;5002928;28;1918;-31
2021/06/01 12:20:41;;;;;;;;;;;;;;;26.87;39.46;100151.59;4996181;28;860;-31
2021/06/01 12:23:22;;;;;;;;;;;;;;;26.88;39.11;100147.84;4979527;28;830;-28
2021/06/01 12:26:27;;;;;;;;;;;;;;;26.78;39.64;100149.03;4996597;28;757;-29
2021/06/01 12:32:07;;;;;;;;;;;;;;;26.76;39.89;100158.34;4995452;28;977;-30
2021/06/01 12:35:31;;;;;;;;;;;;;;;26.87;39.41;100157.84;4996610;28;838;-31
2021/06/01 12:45:58;;;;;;;;;;;;;;;26.86;39.43;100166.94;4996231;28;753;-31
2021/06/01 13:21:35;;;;;;;;;;;;;;;26.84;39.50;100211.38;4999792;28;654;-35
2021/06/01 13:32:16;;;;;;;;;;;;;;;26.88;39.19;100209.94;4997742;28;949;-36
2021/06/01 13:46:03;;;;;;;;;;;;;;;26.48;35.55;100223.88;4997283;28;1002;-34
2021/06/01 13:56:00;;;;;;;;;;;;;;;26.39;37.16;100232.09;5038131;28;1898;-32
2021/06/01 13:58:45;;;;;;;;;;;;;;;26.43;38.18;100234.41;5038564;28;755;-35
2021/06/01 14:01:30;;;;;;;;;;;;;;;26.47;38.58;100249.19;5038550;28;854;-35
2021/06/01 14:36:14;;;;;;;;;;;;;;;26.51;39.28;100262.09;4982978;28;1899;-31
2021/06/01 15:22:46;;;;;;;;;;;;;;;26.42;39.60;100276.72;4997579;28;658;-35
2021/06/01 15:47:41;;;;;;;;;;;;;;;26.34;39.71;100304.63;4997155;28;611;-33
2021/06/01 15:49:36;;;;;;;;;;;;;;;26.36;39.45;100331.44;4996963;28;654;-34
2021/06/01 16:13:56;;;;;;;;;;;;;;;20.54;42.35;100319.53;4980146;28;1071;-33
2021/06/01 16:31:13;;;;;;;;;;;;;;;20.18;43.09;100335.44;4996533;28;606;-34
2021/06/01 16:33:13;;;;;;;;;;;;;;;19.38;45.07;100340.06;4989122;28;1396;-32
2021/06/01 16:44:02;;;;;;;;;;;;;;;20.20;42.90;100336.16;4999133;28;749;-38
2021/06/01 17:05:43;;;;;;;;;;;;;;;19.71;43.92;100323.75;5018986;28;657;-30
2021/06/01 17:11:10;;;;;;;;;;;;;;;27.29;30.01;100339.91;5020204;28;776;-35
2021/06/01 17:13:56;;;;;;;;;;;;;;;26.09;31.58;100341.81;5019316;28;1106;-36
2021/06/01 17:34:39;;;;;;;;;;;;;;;29.46;28.08;100366.94;4993133;28;780;-35
2021/06/01 17:37:06;;;;;;;;;;;;;;;29.53;28.09;100361.53;4999119;28;1894;-34
2021/06/01 17:39:31;;;;;;;;;;;;;;;29.65;27.67;100369.03;4999124;28;801;-33
2021/06/01 17:41:57;;;;;;;;;;;;;;;29.74;27.11;100369.66;4999150;28;725;-37
2021/06/01 17:44:24;;;;;;;;;;;;;;;29.88;26.91;100373.22;4998677;28;808;-34
2021/06/01 17:46:49;;;;;;;;;;;;;;;30.01;26.60;100383.19;5000324;28;1012;-31
2021/06/01 17:49:14;;;;;;;;;;;;;;;30.14;26.37;100380.47;5028912;28;937;-31
2021/06/01 17:51:43;;;;;;;;;;;;;;;30.24;26.54;100388.19;5016006;28;1157;-39
2021/06/01 17:54:08;;;;;;;;;;;;;;;30.24;26.55;100390.88;5000865;28;885;-38
2021/06/01 17:56:35;;;;;;;;;;;;;;;30.34;26.71;100386.88;5000877;28;1902;-36
2021/06/01 17:59:00;;;;;;;;;;;;;;;30.38;26.68;100388.94;5018661;28;820;-38
2021/06/01 18:01:26;;;;;;;;;;;;;;;30.43;26.76;100400.00;5018555;28;780;-38
2021/06/01 18:04:01;;;;;;;;;;;;;;;30.50;27.02;100397.25;5015285;28;968;-37
2021/06/01 18:06:42;;;;;;;;;;;;;;;29.38;28.43;100393.44;5018579;28;1540;-35
2021/06/01 18:36:59;;;;;;;;;;;;;;;26.34;32.11;100390.09;4997977;28;1890;-32
2021/06/01 19:11:55;;;;;;;;;;;;;;;25.85;32.81;100400.34;4996417;28;609;-30
2021/06/01 19:42:42;;;;;;;;;;;;;;;26.80;31.96;100409.75;5016586;28;627;-37